Time;durP1;ratioP1;P1;durP2;ratioP2;P2;SDS_P1;SDS_P2;PMS_P1;PMS_P2;Temp;Humidity;BMP_temperature;BMP_pressure;BME280_temperature;BME280_humidity;BME280_pressure;Samples;Min_cycle;Max_cycle;Signal;HPM_P1;HPM_P2
2020/12/11 00:02:06;;;;;;;40.38;21.40;;;2.90;99.90;;;;;;5033784;28;20203;-45
2020/12/11 00:04:32;;;;;;;45.90;22.67;;;3.10;99.90;;;;;;5034321;28;20197;-44
2020/12/11 00:06:59;;;;;;;42.80;22.70;;;3.10;99.90;;;;;;5034268;28;20306;-44
2020/12/11 00:09:27;;;;;;;47.08;22.95;;;3.10;99.90;;;;;;5033146;28;20197;-45
2020/12/11 00:11:53;;;;;;;44.58;21.33;;;3.00;99.90;;;;;;5034503;28;20219;-44
2020/12/11 00:14:20;;;;;;;41.67;22.92;;;2.90;99.90;;;;;;5033933;28;20623;-44
2020/12/11 00:16:47;;;;;;;49.00;21.65;;;3.00;99.90;;;;;;5034387;28;20406;-44
2020/12/11 00:19:14;;;;;;;45.80;21.77;;;3.00;99.90;;;;;;5034548;28;20196;-44
2020/12/11 00:21:41;;;;;;;47.05;23.25;;;2.50;99.90;;;;;;5034823;28;20192;-44
2020/12/11 00:24:08;;;;;;;43.22;22.55;;;3.30;99.90;;;;;;5034824;28;20209;-45
2020/12/11 00:26:35;;;;;;;52.33;22.30;;;3.20;99.90;;;;;;5037700;28;20220;-45
2020/12/11 00:29:02;;;;;;;49.10;21.83;;;2.90;99.90;;;;;;5036923;28;20601;-45
2020/12/11 00:31:28;;;;;;;43.58;22.35;;;3.10;99.90;;;;;;5038826;28;20203;-45
2020/12/11 00:33:55;;;;;;;46.95;22.40;;;3.10;99.90;;;;;;5035051;28;20227;-45
2020/12/11 00:36:24;;;;;;;55.45;23.80;;;3.30;99.90;;;;;;5034618;28;20697;-46
2020/12/11 00:38:51;;;;;;;57.38;26.92;;;3.20;99.90;;;;;;5033564;28;20252;-45
2020/12/11 00:41:18;;;;;;;49.05;24.45;;;3.10;99.90;;;;;;5033658;28;20197;-45
2020/12/11 00:43:44;;;;;;;49.75;23.17;;;2.50;99.90;;;;;;5034008;28;20316;-45
2020/12/11 00:46:13;;;;;;;47.55;23.10;;;3.10;99.90;;;;;;5034080;28;20188;-45
2020/12/11 00:48:40;;;;;;;43.95;23.10;;;3.10;99.90;;;;;;5033326;28;20539;-46
2020/12/11 00:51:06;;;;;;;53.28;22.98;;;3.40;99.90;;;;;;5034386;28;20205;-46
2020/12/11 00:53:34;;;;;;;49.15;23.90;;;3.10;99.90;;;;;;5031461;28;20574;-46
2020/12/11 00:56:01;;;;;;;51.78;24.05;;;3.30;99.90;;;;;;5031726;28;20669;-46
2020/12/11 00:58:27;;;;;;;49.33;23.40;;;3.30;99.90;;;;;;5033660;28;20263;-46
2020/12/11 01:00:54;;;;;;;47.53;23.70;;;3.40;99.90;;;;;;5033300;28;20196;-46
2020/12/11 01:03:20;;;;;;;50.00;24.38;;;3.40;99.90;;;;;;5033020;28;20563;-46
2020/12/11 01:05:47;;;;;;;54.03;23.17;;;3.30;99.90;;;;;;5033273;28;20224;-46
2020/12/11 01:08:13;;;;;;;59.45;23.98;;;3.30;99.90;;;;;;5032960;28;20265;-46
2020/12/11 01:10:41;;;;;;;48.75;23.30;;;3.20;99.90;;;;;;5033091;28;20258;-46
2020/12/11 01:13:07;;;;;;;48.47;22.70;;;3.20;99.90;;;;;;5032098;28;20576;-46
2020/12/11 01:15:33;;;;;;;47.38;22.05;;;3.20;99.90;;;;;;5032663;28;20268;-46
2020/12/11 01:18:00;;;;;;;47.90;23.45;;;3.10;99.90;;;;;;5032759;28;20220;-46
2020/12/11 01:20:27;;;;;;;51.53;24.75;;;3.20;99.90;;;;;;5032921;28;20255;-45
2020/12/11 01:22:53;;;;;;;52.63;23.13;;;3.40;99.90;;;;;;5030476;28;20783;-46
2020/12/11 01:25:20;;;;;;;46.33;21.75;;;2.60;99.90;;;;;;5032097;28;20200;-45
2020/12/11 01:27:47;;;;;;;63.90;24.77;;;3.50;99.90;;;;;;5032606;28;20739;-46
2020/12/11 01:30:14;;;;;;;48.60;21.73;;;3.20;99.90;;;;;;5032561;28;20204;-46
2020/12/11 01:32:40;;;;;;;48.55;23.00;;;3.20;99.90;;;;;;5032224;28;20196;-45
2020/12/11 01:35:07;;;;;;;48.28;22.90;;;3.00;99.90;;;;;;5032561;28;20200;-45
2020/12/11 01:37:33;;;;;;;44.85;20.70;;;3.10;99.90;;;;;;5032848;28;20216;-47
2020/12/11 01:40:00;;;;;;;41.42;21.17;;;3.30;99.90;;;;;;5032351;28;20188;-45
2020/12/11 01:42:26;;;;;;;39.83;20.20;;;3.10;99.90;;;;;;5032174;28;20189;-45
2020/12/11 01:44:54;;;;;;;47.35;21.98;;;3.20;99.90;;;;;;5032644;28;20281;-46
2020/12/11 01:47:22;;;;;;;44.08;22.25;;;3.10;99.90;;;;;;5032208;28;20220;-45
2020/12/11 01:49:49;;;;;;;48.08;21.05;;;3.10;99.90;;;;;;5032417;28;20238;-46
2020/12/11 01:52:16;;;;;;;42.33;22.15;;;3.40;99.90;;;;;;5032011;28;20188;-46
2020/12/11 01:54:43;;;;;;;44.40;22.58;;;3.20;99.90;;;;;;5030944;28;20239;-46
2020/12/11 01:57:17;;;;;;;43.33;21.70;;;3.20;99.90;;;;;;5031960;28;20226;-45
2020/12/11 01:59:44;;;;;;;41.72;19.70;;;3.10;99.90;;;;;;5032050;28;20343;-45
2020/12/11 02:02:13;;;;;;;42.38;20.50;;;3.10;99.90;;;;;;5032003;28;20193;-45
2020/12/11 02:04:40;;;;;;;40.55;21.50;;;3.10;99.90;;;;;;5031922;28;20193;-46
2020/12/11 02:07:07;;;;;;;44.38;21.20;;;3.20;99.90;;;;;;5031592;28;20228;-46
2020/12/11 02:09:34;;;;;;;44.65;21.20;;;3.10;99.90;;;;;;5031882;28;20247;-45
2020/12/11 02:12:01;;;;;;;49.88;21.58;;;3.20;99.90;;;;;;5032251;28;20657;-45
2020/12/11 02:14:28;;;;;;;50.17;22.42;;;3.30;99.90;;;;;;5030232;28;20293;-45
2020/12/11 02:16:58;;;;;;;56.15;22.98;;;3.00;99.90;;;;;;5031789;28;20632;-45
2020/12/11 02:19:29;;;;;;;49.00;24.60;;;3.40;99.90;;;;;;5031817;28;20216;-46
2020/12/11 02:21:58;;;;;;;53.13;24.23;;;3.10;99.90;;;;;;5031999;28;20681;-45
2020/12/11 02:24:24;;;;;;;59.67;25.50;;;3.30;99.90;;;;;;5030422;28;20203;-46
2020/12/11 02:26:54;;;;;;;61.28;24.80;;;3.40;99.90;;;;;;5031455;28;20558;-46
2020/12/11 02:29:21;;;;;;;48.55;23.63;;;3.20;99.90;;;;;;5030259;28;20206;-46
2020/12/11 02:31:48;;;;;;;52.60;23.85;;;3.40;99.90;;;;;;5030308;28;20208;-45
2020/12/11 02:34:14;;;;;;;58.70;25.15;;;3.30;99.90;;;;;;5031160;28;20200;-46
2020/12/11 02:36:41;;;;;;;54.25;24.00;;;3.50;99.90;;;;;;5031408;28;20216;-46
2020/12/11 02:39:09;;;;;;;66.40;26.00;;;3.30;99.90;;;;;;5031450;28;20766;-45
2020/12/11 02:41:35;;;;;;;55.35;23.20;;;3.40;99.90;;;;;;5031746;28;20625;-45
2020/12/11 02:44:02;;;;;;;55.38;24.63;;;3.40;99.90;;;;;;5031129;28;20547;-46
2020/12/11 02:46:29;;;;;;;58.78;25.08;;;3.30;99.90;;;;;;5031647;28;20653;-46
2020/12/11 02:48:55;;;;;;;57.08;23.55;;;3.20;99.90;;;;;;5031213;28;20247;-46
2020/12/11 02:51:22;;;;;;;53.03;23.73;;;3.20;99.90;;;;;;5031312;28;20224;-46
2020/12/11 02:53:50;;;;;;;56.25;23.52;;;3.20;99.90;;;;;;5029133;28;20543;-45
2020/12/11 02:56:19;;;;;;;56.63;23.75;;;3.10;99.90;;;;;;5031451;28;20299;-45
2020/12/11 02:58:46;;;;;;;55.95;25.90;;;3.40;99.90;;;;;;5031581;28;20692;-45
2020/12/11 03:01:13;;;;;;;50.35;25.90;;;3.50;99.90;;;;;;5031602;28;20189;-45
2020/12/11 03:03:40;;;;;;;54.33;23.55;;;3.20;99.90;;;;;;5031276;28;20549;-46
2020/12/11 03:06:06;;;;;;;57.00;23.85;;;3.20;99.90;;;;;;5030754;28;20207;-46
2020/12/11 03:08:33;;;;;;;51.38;24.58;;;3.30;99.90;;;;;;5031098;28;20430;-45
2020/12/11 03:11:00;;;;;;;46.70;21.88;;;3.20;99.90;;;;;;5031674;28;20638;-45
2020/12/11 03:13:27;;;;;;;52.83;26.65;;;3.50;99.90;;;;;;5031189;28;20262;-46
2020/12/11 03:15:54;;;;;;;52.00;24.42;;;3.40;99.90;;;;;;5031599;28;20674;-46
2020/12/11 03:18:21;;;;;;;49.75;23.85;;;3.60;99.90;;;;;;5031492;28;20283;-46
2020/12/11 03:20:47;;;;;;;52.13;23.75;;;3.30;99.90;;;;;;5032042;28;20279;-46
2020/12/11 03:23:14;;;;;;;53.03;23.48;;;3.10;99.90;;;;;;5031083;28;20267;-45
2020/12/11 03:25:40;;;;;;;45.25;23.17;;;3.20;99.90;;;;;;5032620;28;20225;-45
2020/12/11 03:28:07;;;;;;;50.45;24.30;;;3.30;99.90;;;;;;5033997;28;20213;-45
2020/12/11 03:30:34;;;;;;;49.65;21.45;;;3.40;99.90;;;;;;5033653;28;20201;-45
2020/12/11 03:33:00;;;;;;;57.60;25.58;;;2.90;99.90;;;;;;5031031;28;20192;-45
2020/12/11 03:35:27;;;;;;;55.92;24.23;;;3.20;99.90;;;;;;5031444;28;20200;-46
2020/12/11 03:37:54;;;;;;;52.78;24.52;;;3.40;99.90;;;;;;5032433;28;20220;-45
2020/12/11 03:40:20;;;;;;;55.78;24.20;;;3.20;99.90;;;;;;5034606;28;20197;-45
2020/12/11 03:42:47;;;;;;;56.75;25.80;;;3.20;99.90;;;;;;5034454;28;20239;-45
2020/12/11 03:45:13;;;;;;;62.30;26.75;;;2.60;99.90;;;;;;5034432;28;20684;-46
2020/12/11 03:47:41;;;;;;;54.42;23.35;;;3.30;99.90;;;;;;5035166;28;20212;-46
2020/12/11 03:50:08;;;;;;;54.83;24.38;;;3.10;99.90;;;;;;5035194;28;20199;-46
2020/12/11 03:52:34;;;;;;;64.13;26.23;;;3.20;99.90;;;;;;5033696;28;20213;-46
2020/12/11 03:55:01;;;;;;;58.53;26.30;;;3.20;99.90;;;;;;5034936;28;20193;-45
2020/12/11 03:57:27;;;;;;;60.70;25.08;;;3.10;99.90;;;;;;5034805;28;20235;-45
2020/12/11 03:59:54;;;;;;;62.97;28.15;;;3.30;99.90;;;;;;5034703;28;20270;-45
2020/12/11 04:02:20;;;;;;;58.28;26.25;;;3.10;99.90;;;;;;5034397;28;20196;-44
2020/12/11 04:04:48;;;;;;;60.58;25.38;;;3.10;99.90;;;;;;5034585;28;20715;-45
2020/12/11 04:07:14;;;;;;;56.00;25.25;;;3.30;99.90;;;;;;5034469;28;20232;-45
2020/12/11 04:09:41;;;;;;;58.53;26.98;;;3.20;99.90;;;;;;5034151;28;20197;-45
2020/12/11 04:12:07;;;;;;;60.42;26.23;;;3.10;99.90;;;;;;5032620;28;20307;-45
2020/12/11 04:14:34;;;;;;;57.88;26.98;;;3.10;99.90;;;;;;5033987;28;20204;-45
2020/12/11 04:17:00;;;;;;;71.22;27.80;;;3.10;99.90;;;;;;5033867;28;20287;-46
2020/12/11 04:19:27;;;;;;;61.08;26.23;;;3.20;99.90;;;;;;5034053;28;20693;-44
2020/12/11 04:21:55;;;;;;;54.03;23.95;;;3.20;99.90;;;;;;5032955;28;20189;-44
2020/12/11 04:24:23;;;;;;;60.88;26.27;;;3.20;99.90;;;;;;5033847;28;20692;-46
2020/12/11 04:26:50;;;;;;;56.53;24.40;;;3.30;99.90;;;;;;5033941;28;20311;-45
2020/12/11 04:29:16;;;;;;;51.33;24.73;;;3.30;99.90;;;;;;5033826;28;20528;-46
2020/12/11 04:31:43;;;;;;;45.63;24.50;;;3.30;99.90;;;;;;5033963;28;20288;-44
2020/12/11 04:34:09;;;;;;;49.80;23.88;;;3.10;99.90;;;;;;5034123;28;20674;-46
2020/12/11 04:36:36;;;;;;;44.80;22.55;;;3.10;99.90;;;;;;5035303;28;20217;-45
2020/12/11 04:39:04;;;;;;;48.75;24.95;;;3.20;99.90;;;;;;5034313;28;20223;-45
2020/12/11 04:41:32;;;;;;;51.00;23.48;;;2.50;99.90;;;;;;5033674;28;20205;-45
2020/12/11 04:43:59;;;;;;;43.83;21.92;;;3.10;99.90;;;;;;5033356;28;20628;-45
2020/12/11 04:46:27;;;;;;;48.03;23.40;;;3.10;99.90;;;;;;5033496;28;20270;-46
2020/12/11 04:48:55;;;;;;;54.67;22.90;;;3.00;99.90;;;;;;5033460;28;20283;-46
2020/12/11 04:51:24;;;;;;;44.03;23.08;;;3.10;99.90;;;;;;5033403;28;20199;-45
2020/12/11 04:53:53;;;;;;;49.10;22.05;;;3.10;99.90;;;;;;5031867;28;20589;-44
2020/12/11 04:56:22;;;;;;;41.55;20.95;;;3.20;99.90;;;;;;5032986;28;20288;-46
2020/12/11 04:58:51;;;;;;;48.55;22.67;;;3.40;99.90;;;;;;5032868;28;20224;-46
2020/12/11 05:01:28;;;;;;;44.67;22.73;;;3.30;99.90;;;;;;5033050;28;20202;-46
2020/12/11 05:03:55;;;;;;;47.05;22.33;;;3.40;99.90;;;;;;5032948;28;20196;-45
2020/12/11 05:06:22;;;;;;;59.90;24.83;;;3.30;99.90;;;;;;5032784;28;20681;-46
2020/12/11 05:08:49;;;;;;;51.65;23.80;;;3.30;99.90;;;;;;5033083;28;20205;-45
2020/12/11 05:11:29;;;;;;;48.58;21.92;;;3.10;99.90;;;;;;5032857;28;20192;-47
2020/12/11 05:13:56;;;;;;;49.13;22.70;;;3.20;99.90;;;;;;5032621;28;20285;-45
2020/12/11 05:16:22;;;;;;;47.13;22.67;;;3.20;99.90;;;;;;5032880;28;20208;-46
2020/12/11 05:19:02;;;;;;;47.38;22.40;;;3.30;99.90;;;;;;5032957;28;20205;-45
2020/12/11 05:21:30;;;;;;;46.72;23.73;;;3.30;99.90;;;;;;5033411;28;20623;-46
2020/12/11 05:23:59;;;;;;;56.25;23.92;;;3.00;99.90;;;;;;5032431;28;20201;-45
2020/12/11 05:26:28;;;;;;;45.60;21.73;;;3.10;99.90;;;;;;5031927;28;20229;-46
2020/12/11 05:28:54;;;;;;;48.78;23.10;;;3.10;99.90;;;;;;5032822;28;20197;-46
2020/12/11 05:31:21;;;;;;;45.70;22.60;;;3.10;99.90;;;;;;5031633;28;20629;-44
2020/12/11 05:34:08;;;;;;;50.13;23.52;;;3.20;99.90;;;;;;5032935;28;20197;-44
2020/12/11 05:36:46;;;;;;;47.38;21.15;;;3.10;99.90;;;;;;5032709;28;20215;-46
2020/12/11 05:39:16;;;;;;;50.15;21.77;;;3.20;99.90;;;;;;5032404;28;20685;-46
2020/12/11 05:41:43;;;;;;;49.45;22.63;;;3.20;99.90;;;;;;5032455;28;20184;-44
2020/12/11 05:44:24;;;;;;;57.03;24.40;;;3.40;99.90;;;;;;5031925;28;20199;-45
2020/12/11 05:46:51;;;;;;;45.00;22.73;;;3.20;99.90;;;;;;5032218;28;20710;-46
2020/12/11 05:49:25;;;;;;;44.78;21.85;;;3.30;99.90;;;;;;5032464;28;20192;-46
2020/12/11 05:51:57;;;;;;;47.50;24.13;;;3.60;99.90;;;;;;5031694;28;20193;-46
2020/12/11 05:54:24;;;;;;;51.05;22.65;;;3.10;99.90;;;;;;5031342;28;20539;-45
2020/12/11 05:56:52;;;;;;;39.50;21.40;;;3.20;99.90;;;;;;5032294;28;20302;-46
2020/12/11 05:59:26;;;;;;;47.95;22.42;;;3.30;99.90;;;;;;5032117;28;20220;-46
2020/12/11 06:01:56;;;;;;;39.00;21.40;;;3.20;99.90;;;;;;5031407;28;20200;-46
2020/12/11 06:04:25;;;;;;;51.50;24.58;;;3.00;99.90;;;;;;5031549;28;20288;-45
2020/12/11 06:06:56;;;;;;;50.80;22.90;;;3.20;99.90;;;;;;5032721;28;20232;-45
2020/12/11 06:09:36;;;;;;;42.60;23.05;;;3.00;99.90;;;;;;5032621;28;20195;-44
2020/12/11 06:12:05;;;;;;;49.33;24.80;;;3.00;99.90;;;;;;5032917;28;20210;-46
2020/12/11 06:14:48;;;;;;;49.90;24.02;;;3.10;99.90;;;;;;5034088;28;20184;-45
2020/12/11 06:17:16;;;;;;;50.45;24.15;;;2.60;99.90;;;;;;5032606;28;20231;-45
2020/12/11 06:19:44;;;;;;;49.72;23.48;;;3.10;99.90;;;;;;5031643;28;20278;-45
2020/12/11 06:22:12;;;;;;;46.25;22.13;;;3.10;99.90;;;;;;5029504;28;20196;-46
2020/12/11 06:24:39;;;;;;;53.92;23.75;;;2.50;99.90;;;;;;5030564;28;20216;-45
2020/12/11 06:27:06;;;;;;;53.85;26.17;;;3.30;99.90;;;;;;5031035;28;20208;-46
2020/12/11 06:29:34;;;;;;;65.07;24.52;;;3.10;99.90;;;;;;5032212;28;20200;-46
2020/12/11 06:32:01;;;;;;;49.10;22.60;;;3.10;99.90;;;;;;5031581;28;20204;-45
2020/12/11 06:34:28;;;;;;;49.00;24.15;;;2.60;99.90;;;;;;5030905;28;20204;-46
2020/12/11 06:36:55;;;;;;;48.75;27.13;;;3.10;99.90;;;;;;5028254;28;20267;-44
2020/12/11 06:39:42;;;;;;;55.03;24.58;;;2.60;99.90;;;;;;5012304;28;20528;-46
2020/12/11 06:42:11;;;;;;;51.50;24.85;;;3.10;99.90;;;;;;5011497;28;20258;-44
2020/12/11 06:44:38;;;;;;;53.55;26.70;;;3.10;99.90;;;;;;5009839;28;20201;-46
2020/12/11 06:47:07;;;;;;;46.45;22.60;;;3.00;99.90;;;;;;5011139;28;20279;-46
2020/12/11 06:49:34;;;;;;;53.15;24.60;;;3.20;99.90;;;;;;5011673;28;20196;-46
2020/12/11 06:52:12;;;;;;;52.03;25.98;;;3.50;99.90;;;;;;5011758;28;20193;-45
2020/12/11 06:54:54;;;;;;;54.33;25.42;;;3.20;99.90;;;;;;5010652;28;20209;-45
2020/12/11 06:57:36;;;;;;;54.65;25.73;;;3.20;99.90;;;;;;5010700;28;20217;-47
2020/12/11 07:00:29;;;;;;;56.35;25.70;;;2.50;99.90;;;;;;5015623;28;20216;-46
2020/12/11 07:03:19;;;;;;;52.42;23.85;;;3.20;99.90;;;;;;5010575;28;20227;-45
2020/12/11 07:05:45;;;;;;;51.42;25.10;;;3.10;99.90;;;;;;5011079;28;20615;-46
2020/12/11 07:08:13;;;;;;;56.38;24.73;;;3.10;99.90;;;;;;5010988;28;20253;-45
2020/12/11 07:10:40;;;;;;;54.97;25.45;;;3.00;99.90;;;;;;5011632;28;20252;-45
2020/12/11 07:13:09;;;;;;;57.70;25.48;;;3.10;99.90;;;;;;5022458;28;20314;-45
2020/12/11 07:15:36;;;;;;;53.35;24.90;;;3.00;99.90;;;;;;5035703;28;20245;-46
2020/12/11 07:18:03;;;;;;;44.92;24.67;;;3.20;99.90;;;;;;5035002;28;20239;-47
2020/12/11 07:20:30;;;;;;;60.88;26.23;;;3.10;99.90;;;;;;5033942;28;20200;-46
2020/12/11 07:22:59;;;;;;;52.42;23.85;;;3.10;99.90;;;;;;5035026;28;20193;-46
2020/12/11 07:25:28;;;;;;;48.72;23.23;;;2.50;99.90;;;;;;5037629;28;20240;-46
2020/12/11 07:28:02;;;;;;;56.00;27.13;;;2.60;99.90;;;;;;5036947;28;20212;-47
2020/12/11 07:30:30;;;;;;;59.58;29.02;;;3.30;99.90;;;;;;5035618;28;20203;-48
2020/12/11 07:32:57;;;;;;;60.33;26.42;;;3.40;99.90;;;;;;5034258;28;20199;-46
2020/12/11 07:35:24;;;;;;;61.03;25.73;;;3.40;99.90;;;;;;5034652;28;20197;-46
2020/12/11 07:37:52;;;;;;;62.58;25.02;;;3.30;99.90;;;;;;5034890;28;20213;-47
2020/12/11 07:40:19;;;;;;;65.03;26.77;;;3.40;99.90;;;;;;5034471;28;20193;-46
2020/12/11 07:42:47;;;;;;;61.83;27.33;;;3.60;99.90;;;;;;5034442;28;20278;-44
2020/12/11 07:45:24;;;;;;;52.90;26.05;;;3.40;99.90;;;;;;5033893;28;20223;-45
2020/12/11 07:47:53;;;;;;;54.13;24.75;;;3.40;99.90;;;;;;5014744;28;20217;-47
2020/12/11 07:50:23;;;;;;;57.30;25.48;;;3.30;99.90;;;;;;5014777;28;20200;-46
2020/12/11 07:52:52;;;;;;;48.85;23.60;;;3.40;99.90;;;;;;5014947;28;20580;-44
2020/12/11 07:55:19;;;;;;;53.45;24.83;;;3.30;99.90;;;;;;5015147;28;20268;-45
2020/12/11 07:57:53;;;;;;;51.97;23.77;;;3.50;99.90;;;;;;5014288;28;20229;-45
2020/12/11 08:00:21;;;;;;;54.33;26.55;;;3.30;99.90;;;;;;5016973;28;20287;-46
2020/12/11 08:02:56;;;;;;;55.10;26.13;;;3.60;99.90;;;;;;5033915;28;20192;-45
2020/12/11 08:05:23;;;;;;;56.63;25.65;;;3.30;99.90;;;;;;5034751;28;20261;-45
2020/12/11 08:07:51;;;;;;;50.83;25.80;;;3.30;99.90;;;;;;5035011;28;20672;-45
2020/12/11 08:10:19;;;;;;;53.00;22.90;;;3.40;99.90;;;;;;5035970;28;20201;-44
2020/12/11 08:12:47;;;;;;;49.85;25.65;;;3.50;99.90;;;;;;5034580;28;20199;-47
2020/12/11 08:15:29;;;;;;;55.25;25.55;;;3.30;99.90;;;;;;5035086;28;20658;-46
2020/12/11 08:18:19;;;;;;;50.00;24.67;;;3.10;99.90;;;;;;5032946;28;20715;-46
2020/12/11 08:20:48;;;;;;;54.45;25.85;;;3.60;99.90;;;;;;5035045;28;20201;-45
2020/12/11 08:23:19;;;;;;;53.28;25.48;;;3.40;99.90;;;;;;5033574;28;20638;-45
2020/12/11 08:25:46;;;;;;;53.72;24.10;;;3.30;99.90;;;;;;5034232;28;20268;-46
2020/12/11 08:28:13;;;;;;;53.72;24.70;;;2.90;99.90;;;;;;5034167;28;20748;-46
2020/12/11 08:30:40;;;;;;;46.55;25.13;;;3.40;99.90;;;;;;5037257;28;20259;-45
2020/12/11 08:33:12;;;;;;;47.15;24.80;;;3.50;99.90;;;;;;5035210;28;20297;-46
2020/12/11 08:35:39;;;;;;;47.25;22.60;;;3.20;99.90;;;;;;5034102;28;20642;-45
2020/12/11 08:38:10;;;;;;;52.17;24.73;;;3.30;99.90;;;;;;5033448;28;20216;-43
2020/12/11 08:40:47;;;;;;;49.95;24.52;;;3.40;99.90;;;;;;5033454;28;20696;-45
2020/12/11 08:43:20;;;;;;;48.85;24.40;;;3.50;99.90;;;;;;5032877;28;20196;-45
2020/12/11 08:45:57;;;;;;;52.92;25.98;;;3.40;99.90;;;;;;5033449;28;20200;-46
2020/12/11 08:51:08;;;;;;;52.03;25.50;;;3.40;99.90;;;;;;5032839;28;20201;-46
2020/12/11 08:53:36;;;;;;;42.97;23.48;;;3.30;99.90;;;;;;5032662;28;20204;-45
2020/12/11 08:56:06;;;;;;;43.75;21.52;;;3.50;99.90;;;;;;5033512;28;20188;-45
2020/12/11 08:58:33;;;;;;;45.13;24.20;;;3.30;99.90;;;;;;5033187;28;20637;-45
2020/12/11 09:00:59;;;;;;;47.28;21.45;;;3.40;99.90;;;;;;5032673;28;20212;-45
2020/12/11 09:03:27;;;;;;;47.03;22.38;;;3.30;99.90;;;;;;5032603;28;20197;-46
2020/12/11 09:05:53;;;;;;;37.60;20.60;;;3.60;99.90;;;;;;5032872;28;20243;-46
2020/12/11 09:08:20;;;;;;;42.92;23.30;;;2.70;99.90;;;;;;5033296;28;20275;-46
2020/12/11 09:10:47;;;;;;;40.33;23.05;;;3.40;99.90;;;;;;5030448;28;20290;-46
2020/12/11 09:13:13;;;;;;;43.55;22.58;;;3.40;99.90;;;;;;5031767;28;20208;-46
2020/12/11 09:15:40;;;;;;;41.80;22.70;;;3.70;99.90;;;;;;5030787;28;20213;-46
2020/12/11 09:18:06;;;;;;;38.75;20.85;;;3.50;99.90;;;;;;5032505;28;20236;-46
2020/12/11 09:20:34;;;;;;;37.85;21.40;;;3.50;99.90;;;;;;5031892;28;20203;-47
2020/12/11 09:23:00;;;;;;;41.78;21.15;;;3.60;99.90;;;;;;5031919;28;20306;-46
2020/12/11 09:25:27;;;;;;;46.72;23.42;;;3.40;99.90;;;;;;5029568;28;20200;-46
2020/12/11 09:27:54;;;;;;;43.33;21.13;;;3.40;99.90;;;;;;5031234;28;20638;-46
2020/12/11 09:30:26;;;;;;;38.33;21.08;;;3.50;99.90;;;;;;5031966;28;20658;-46
2020/12/11 09:33:04;;;;;;;41.17;20.80;;;3.40;99.90;;;;;;5030628;28;20700;-46
2020/12/11 09:35:31;;;;;;;44.15;23.27;;;3.60;99.90;;;;;;5026918;28;20208;-46
2020/12/11 09:37:58;;;;;;;47.10;24.08;;;3.70;99.90;;;;;;5032211;28;20228;-46
2020/12/11 09:40:33;;;;;;;45.63;22.20;;;3.30;99.90;;;;;;5031914;28;20231;-46
2020/12/11 09:45:59;;;;;;;44.25;22.73;;;3.80;99.90;;;;;;5126856;27;20524;-46
2020/12/11 09:48:33;;;;;;;41.70;23.10;;;2.90;99.90;;;;;;5068445;28;20260;-46
2020/12/11 09:54:09;;;;;;;52.17;23.63;;;3.40;99.90;;;;;;5025738;28;20286;-46
2020/12/11 09:56:35;;;;;;;48.33;24.60;;;3.60;99.90;;;;;;5101214;22;20331;-48
2020/12/11 09:59:05;;;;;;;44.72;22.17;;;3.90;99.90;;;;;;5068208;28;20232;-49
2020/12/11 10:01:45;;;;;;;42.83;25.08;;;3.90;99.90;;;;;;5068084;28;20222;-49
2020/12/11 10:04:11;;;;;;;49.45;25.20;;;3.50;99.90;;;;;;5071534;28;20654;-48
2020/12/11 10:06:38;;;;;;;51.00;26.70;;;3.00;99.90;;;;;;5088217;28;20194;-49
2020/12/11 10:09:05;;;;;;;42.03;23.20;;;3.60;99.90;;;;;;5089044;28;20539;-47
2020/12/11 10:11:31;;;;;;;39.88;23.48;;;3.60;99.90;;;;;;5088114;28;20350;-49
2020/12/11 10:14:13;;;;;;;43.47;23.80;;;3.90;99.90;;;;;;5071001;28;20208;-48
2020/12/11 10:16:41;;;;;;;41.30;22.35;;;3.70;99.90;;;;;;5066915;28;20203;-48
2020/12/11 10:19:07;;;;;;;40.22;23.15;;;3.90;99.90;;;;;;5068125;28;20195;-47
2020/12/11 10:21:34;;;;;;;41.92;24.20;;;3.40;99.90;;;;;;5050775;28;20199;-47
2020/12/11 10:24:01;;;;;;;42.83;24.05;;;3.40;99.90;;;;;;5067967;28;20208;-48
2020/12/11 10:26:27;;;;;;;42.15;23.15;;;3.60;99.90;;;;;;5068572;28;20230;-47
2020/12/11 10:28:54;;;;;;;43.42;24.20;;;3.70;99.90;;;;;;5068496;28;20617;-48
2020/12/11 10:31:20;;;;;;;51.80;25.17;;;4.00;99.90;;;;;;5067984;28;20215;-49
2020/12/11 10:33:48;;;;;;;49.13;23.90;;;4.20;99.90;;;;;;5067361;28;20559;-48
2020/12/11 10:36:14;;;;;;;47.78;23.75;;;4.20;99.90;;;;;;5067534;28;20566;-48
2020/12/11 10:38:41;;;;;;;38.90;22.92;;;4.20;99.90;;;;;;5067534;28;20242;-47
2020/12/11 10:41:07;;;;;;;43.22;23.83;;;3.90;99.90;;;;;;5067589;28;20219;-47
2020/12/11 10:43:34;;;;;;;41.05;23.17;;;4.10;99.90;;;;;;5066614;28;20268;-48
2020/12/11 10:46:00;;;;;;;42.40;23.48;;;4.10;99.90;;;;;;5048285;28;20659;-49
2020/12/11 10:48:27;;;;;;;42.45;24.75;;;4.20;99.90;;;;;;5067190;28;20215;-49
2020/12/11 10:50:54;;;;;;;45.10;24.42;;;4.00;99.90;;;;;;5067208;28;20199;-48
2020/12/11 10:53:21;;;;;;;37.50;22.30;;;4.20;99.90;;;;;;5067147;28;20196;-48
2020/12/11 10:55:47;;;;;;;47.13;24.65;;;4.00;99.90;;;;;;5062188;28;20196;-48
2020/12/11 10:58:14;;;;;;;41.20;22.08;;;4.20;99.90;;;;;;5053813;28;20255;-48
2020/12/11 11:00:40;;;;;;;46.50;23.88;;;4.00;99.90;;;;;;5052728;28;20200;-48
2020/12/11 11:03:07;;;;;;;42.05;23.05;;;4.10;99.90;;;;;;5053586;28;20192;-48
2020/12/11 11:05:35;;;;;;;55.58;24.65;;;4.00;99.90;;;;;;5035807;28;20261;-48
2020/12/11 11:08:03;;;;;;;49.30;24.02;;;4.20;99.90;;;;;;5053424;28;20219;-47
2020/12/11 11:10:32;;;;;;;42.85;25.48;;;3.90;99.90;;;;;;5053367;28;20210;-48
2020/12/11 11:13:12;;;;;;;46.08;23.98;;;3.90;99.90;;;;;;5053063;28;20196;-48
2020/12/11 11:15:45;;;;;;;43.58;22.95;;;4.10;99.90;;;;;;5053352;28;20232;-48
2020/12/11 11:18:34;;;;;;;43.78;24.92;;;4.20;99.90;;;;;;5035711;28;20237;-48
2020/12/11 11:23:57;;;;;;;44.28;22.02;;;4.20;99.90;;;;;;5020092;28;20207;-47
2020/12/11 11:26:33;;;;;;;41.63;21.67;;;3.80;99.90;;;;;;5053412;28;20199;-47
2020/12/11 11:28:59;;;;;;;41.47;21.38;;;4.10;99.90;;;;;;5053798;28;20187;-46
2020/12/11 11:31:26;;;;;;;43.38;21.83;;;4.30;99.90;;;;;;5052226;28;20249;-48
2020/12/11 11:33:52;;;;;;;44.25;24.02;;;4.00;99.90;;;;;;5053328;28;20674;-47
2020/12/11 11:36:19;;;;;;;40.90;23.50;;;4.00;99.90;;;;;;5053499;28;20228;-48
2020/12/11 11:38:47;;;;;;;36.08;22.63;;;4.50;99.90;;;;;;5053267;28;20223;-49
2020/12/11 11:41:17;;;;;;;38.63;22.23;;;3.50;99.90;;;;;;5053061;28;20275;-49
2020/12/11 11:44:00;;;;;;;43.47;23.10;;;4.50;99.90;;;;;;5052798;28;20273;-49
2020/12/11 11:46:32;;;;;;;42.05;23.95;;;4.00;99.90;;;;;;5052956;28;20222;-48
2020/12/11 11:48:58;;;;;;;35.28;21.38;;;4.00;99.90;;;;;;5053232;28;20582;-49
2020/12/11 11:51:35;;;;;;;36.17;21.83;;;4.40;99.90;;;;;;5053688;28;20188;-48
2020/12/11 11:54:02;;;;;;;41.92;22.88;;;4.20;99.90;;;;;;5056472;28;20648;-47
2020/12/11 11:56:29;;;;;;;37.47;22.05;;;4.20;99.90;;;;;;5056112;28;20226;-48
2020/12/11 11:58:55;;;;;;;44.22;24.25;;;4.10;99.90;;;;;;5052977;28;20196;-48
2020/12/11 12:01:22;;;;;;;37.30;20.85;;;4.20;99.90;;;;;;5051847;28;20199;-51
2020/12/11 12:03:48;;;;;;;38.90;23.73;;;4.30;99.90;;;;;;5052999;28;20282;-48
2020/12/11 12:06:21;;;;;;;39.03;23.30;;;4.30;99.90;;;;;;5053273;28;20301;-48
2020/12/11 12:08:48;;;;;;;47.30;24.73;;;4.30;99.90;;;;;;5051981;28;20192;-48
2020/12/11 12:11:15;;;;;;;46.00;21.88;;;4.10;99.90;;;;;;5052442;28;20648;-50
2020/12/11 12:13:42;;;;;;;33.92;20.88;;;4.30;99.90;;;;;;5052139;28;20215;-50
2020/12/11 12:16:08;;;;;;;35.10;21.42;;;4.20;99.90;;;;;;5052494;28;20218;-50
2020/12/11 12:18:38;;;;;;;42.30;23.63;;;4.00;99.90;;;;;;5052479;28;20219;-49
2020/12/11 12:21:09;;;;;;;41.72;23.05;;;4.20;99.90;;;;;;5032686;28;20209;-49
2020/12/11 12:29:10;;;;;;;39.45;22.33;;;3.70;99.90;;;;;;5032317;28;20205;-48
2020/12/11 12:31:43;;;;;;;40.92;23.23;;;4.30;99.90;;;;;;5042819;28;20189;-48
2020/12/11 12:34:31;;;;;;;45.00;24.70;;;4.20;99.90;;;;;;5051357;28;20516;-47
2020/12/11 12:45:08;;;;;;;41.30;23.20;;;4.50;99.90;;;;;;5052019;28;20347;-48
2020/12/11 12:47:36;;;;;;;42.00;24.15;;;4.60;99.90;;;;;;5052133;28;20288;-49
2020/12/11 12:50:03;;;;;;;42.50;23.38;;;4.40;99.90;;;;;;5051828;28;20283;-48
2020/12/11 12:52:30;;;;;;;53.00;25.70;;;3.60;99.90;;;;;;5051894;28;20203;-48
2020/12/11 12:54:57;;;;;;;41.85;22.75;;;4.30;99.90;;;;;;5053003;28;20264;-48
2020/12/11 12:57:28;;;;;;;45.10;24.60;;;4.40;99.90;;;;;;5051745;28;20271;-48
2020/12/11 12:59:59;;;;;;;46.15;23.90;;;4.60;99.90;;;;;;5051621;28;20200;-50
2020/12/11 13:02:48;;;;;;;41.28;22.67;;;4.60;99.90;;;;;;5050415;28;20505;-48
2020/12/11 13:05:14;;;;;;;42.13;24.10;;;4.50;99.90;;;;;;5051258;28;20629;-49
2020/12/11 13:07:41;;;;;;;44.03;22.90;;;4.50;99.90;;;;;;5051418;28;20216;-48
2020/12/11 13:10:07;;;;;;;42.88;21.80;;;4.50;99.90;;;;;;5033129;28;20195;-48